Time;durP1;ratioP1;P1;durP2;ratioP2;P2;SDS_P1;SDS_P2;PMS_P1;PMS_P2;Temp;Humidity;BMP_temperature;BMP_pressure;BME280_temperature;BME280_humidity;BME280_pressure;Samples;Min_cycle;Max_cycle;Signal;HPM_P1;HPM_P2
2023/02/03 00:01:05;;;;;;;6.78;1.70;;;;;;;;;;5027302;28;20043;-72
2023/02/03 00:03:31;;;;;;;8.88;2.28;;;;;;;;;;5015772;28;20042;-73
2023/02/03 00:05:56;;;;;;;7.93;2.30;;;;;;;;;;5026320;28;20034;-72
2023/02/03 00:08:22;;;;;;;4.78;1.80;;;;;;;;;;5026193;28;20041;-73
2023/02/03 00:10:48;;;;;;;5.22;1.50;;;;;;;;;;5025693;28;20041;-73
2023/02/03 00:13:13;;;;;;;8.32;1.90;;;;;;;;;;5029063;28;20068;-73
2023/02/03 00:15:38;;;;;;;6.70;1.77;;;;;;;;;;5022674;28;20065;-73
2023/02/03 00:18:04;;;;;;;8.30;1.92;;;;;;;;;;5031313;28;20052;-72
2023/02/03 00:20:29;;;;;;;8.20;2.05;;;;;;;;;;5017076;28;20492;-73
2023/02/03 00:23:02;;;;;;;5.53;1.88;;;;;;;;;;5029425;28;20036;-73
2023/02/03 00:25:27;;;;;;;4.97;2.00;;;;;;;;;;5018689;28;20034;-73
2023/02/03 00:27:53;;;;;;;8.70;1.88;;;;;;;;;;5030784;28;20430;-73
2023/02/03 00:30:18;;;;;;;7.47;2.22;;;;;;;;;;5018714;28;20084;-74
2023/02/03 00:32:44;;;;;;;8.90;2.03;;;;;;;;;;5020345;28;20044;-73
2023/02/03 00:35:09;;;;;;;7.00;2.20;;;;;;;;;;5019016;28;20042;-73
2023/02/03 00:37:34;;;;;;;6.25;2.10;;;;;;;;;;5019876;28;20504;-73
2023/02/03 00:40:00;;;;;;;7.00;2.05;;;;;;;;;;5028991;28;20037;-72
2023/02/03 00:42:25;;;;;;;15.13;2.38;;;;;;;;;;5022981;28;20041;-73
2023/02/03 00:44:50;;;;;;;5.93;1.90;;;;;;;;;;5032719;28;20040;-74
2023/02/03 00:47:16;;;;;;;5.03;1.55;;;;;;;;;;5023449;28;20473;-74
2023/02/03 00:49:41;;;;;;;5.95;1.50;;;;;;;;;;5026632;28;20048;-73
2023/02/03 00:52:07;;;;;;;4.15;1.50;;;;;;;;;;5029377;28;20136;-73
2023/02/03 00:54:32;;;;;;;6.95;1.50;;;;;;;;;;5033839;28;20128;-72
2023/02/03 00:56:57;;;;;;;8.02;1.95;;;;;;;;;;5029382;28;20048;-73
2023/02/03 00:59:23;;;;;;;7.68;2.00;;;;;;;;;;5030128;28;20120;-73
2023/02/03 01:01:49;;;;;;;7.80;1.83;;;;;;;;;;5027325;28;20060;-73
2023/02/03 01:04:15;;;;;;;10.63;2.20;;;;;;;;;;5021323;28;20049;-72
2023/02/03 01:06:40;;;;;;;13.15;1.90;;;;;;;;;;5022576;28;20037;-72
2023/02/03 01:09:06;;;;;;;6.10;1.92;;;;;;;;;;5018646;28;20112;-73
2023/02/03 01:11:31;;;;;;;7.25;2.05;;;;;;;;;;5024979;28;20037;-73
2023/02/03 01:14:00;;;;;;;7.82;1.85;;;;;;;;;;5023280;28;20470;-72
2023/02/03 01:16:26;;;;;;;4.03;1.60;;;;;;;;;;5029570;28;20069;-73
2023/02/03 01:18:52;;;;;;;7.25;1.52;;;;;;;;;;5022997;28;20456;-72
2023/02/03 01:21:23;;;;;;;4.50;1.20;;;;;;;;;;5018804;28;20109;-73
2023/02/03 01:23:49;;;;;;;4.55;1.35;;;;;;;;;;5019932;28;20034;-73
2023/02/03 01:26:17;;;;;;;5.03;1.38;;;;;;;;;;5039697;28;20112;-73
2023/02/03 01:28:43;;;;;;;3.92;1.17;;;;;;;;;;5028373;28;20078;-73
2023/02/03 01:31:08;;;;;;;4.00;1.00;;;;;;;;;;5023700;28;20034;-73
2023/02/03 01:33:34;;;;;;;4.72;1.02;;;;;;;;;;5032064;28;20042;-74
2023/02/03 01:36:00;;;;;;;2.35;1.08;;;;;;;;;;5027995;28;20033;-72
2023/02/03 01:38:25;;;;;;;3.95;1.10;;;;;;;;;;5015883;28;20041;-73
2023/02/03 01:40:51;;;;;;;3.50;0.90;;;;;;;;;;5014808;28;20042;-72
2023/02/03 01:43:33;;;;;;;2.80;0.75;;;;;;;;;;5015534;28;20057;-73
2023/02/03 01:46:02;;;;;;;3.90;0.90;;;;;;;;;;5026748;28;20398;-72
2023/02/03 01:48:30;;;;;;;6.43;1.38;;;;;;;;;;5018378;28;20057;-73
2023/02/03 01:50:55;;;;;;;5.10;1.15;;;;;;;;;;5020697;28;20049;-73
2023/02/03 01:53:21;;;;;;;3.38;1.00;;;;;;;;;;5027200;28;20045;-73
2023/02/03 01:55:48;;;;;;;4.47;1.02;;;;;;;;;;5021916;28;20033;-73
2023/02/03 01:58:19;;;;;;;2.33;0.80;;;;;;;;;;5024453;28;20048;-74
2023/02/03 02:00:46;;;;;;;4.25;0.80;;;;;;;;;;5050345;28;20473;-73
2023/02/03 02:03:12;;;;;;;6.63;1.17;;;;;;;;;;5024151;28;20041;-73
2023/02/03 02:05:54;;;;;;;3.50;0.73;;;;;;;;;;5022186;28;20095;-72
2023/02/03 02:08:22;;;;;;;8.82;0.77;;;;;;;;;;5021382;28;20038;-73
2023/02/03 02:10:48;;;;;;;2.67;0.85;;;;;;;;;;5023724;28;20045;-73
2023/02/03 02:13:14;;;;;;;4.97;0.70;;;;;;;;;;5030603;28;20033;-76
2023/02/03 02:15:58;;;;;;;5.32;0.80;;;;;;;;;;5014044;28;20058;-73
2023/02/03 02:18:45;;;;;;;3.92;0.73;;;;;;;;;;5024961;28;20095;-72
2023/02/03 02:21:38;;;;;;;6.82;1.35;;;;;;;;;;5020867;28;20131;-73
2023/02/03 02:24:18;;;;;;;1.65;0.57;;;;;;;;;;5014893;28;20033;-73
2023/02/03 02:26:55;;;;;;;6.45;0.80;;;;;;;;;;5021155;28;20046;-73
2023/02/03 02:29:23;;;;;;;1.83;0.70;;;;;;;;;;5020974;28;20481;-73
2023/02/03 02:32:02;;;;;;;3.08;0.68;;;;;;;;;;5030376;28;20037;-73
2023/02/03 02:34:31;;;;;;;4.53;0.63;;;;;;;;;;5017913;28;20079;-72
2023/02/03 02:37:01;;;;;;;5.03;0.93;;;;;;;;;;5025259;28;20057;-73
2023/02/03 02:39:45;;;;;;;2.78;0.52;;;;;;;;;;5020452;28;20450;-73
2023/02/03 02:42:29;;;;;;;;;;;;;;;;;;5030385;28;20072;-73
2023/02/03 02:45:04;;;;;;;3.27;0.70;;;;;;;;;;5018857;28;19918;-73
2023/02/03 02:47:30;;;;;;;4.00;1.20;;;;;;;;;;5005899;28;20291;-72
2023/02/03 02:50:01;;;;;;;4.65;0.70;;;;;;;;;;5019671;28;20041;-73
2023/02/03 02:52:29;;;;;;;2.78;0.60;;;;;;;;;;5015323;28;20053;-72
2023/02/03 02:54:57;;;;;;;4.90;0.70;;;;;;;;;;5024196;28;20045;-72
2023/02/03 02:57:23;;;;;;;4.30;0.70;;;;;;;;;;5027599;28;20099;-73
2023/02/03 02:59:49;;;;;;;0.80;0.52;;;;;;;;;;5014601;28;20038;-73
2023/02/03 03:02:15;;;;;;;5.07;0.77;;;;;;;;;;5022849;28;20032;-72
2023/02/03 03:04:42;;;;;;;5.93;1.00;;;;;;;;;;5017782;28;20049;-74
2023/02/03 03:07:13;;;;;;;1.67;0.60;;;;;;;;;;5023670;28;20120;-73
2023/02/03 03:09:40;;;;;;;4.95;0.75;;;;;;;;;;5017699;28;20045;-73
2023/02/03 03:12:12;;;;;;;7.20;1.17;;;;;;;;;;5020703;28;20038;-72
2023/02/03 03:14:41;;;;;;;9.35;2.22;;;;;;;;;;5014364;28;20042;-72
2023/02/03 03:17:08;;;;;;;3.22;1.00;;;;;;;;;;5022597;28;20041;-72
2023/02/03 03:19:37;;;;;;;8.85;1.45;;;;;;;;;;5018086;28;20500;-72
2023/02/03 03:22:05;;;;;;;1.73;0.90;;;;;;;;;;5024421;28;20091;-72
2023/02/03 03:24:33;;;;;;;4.90;1.20;;;;;;;;;;5030525;28;20072;-73
2023/02/03 03:27:06;;;;;;;5.40;1.00;;;;;;;;;;5028579;28;20033;-75
2023/02/03 03:29:47;;;;;;;5.75;1.60;;;;;;;;;;5016256;28;20042;-73
2023/02/03 03:32:13;;;;;;;2.90;0.82;;;;;;;;;;5027930;28;20087;-73
2023/02/03 03:34:39;;;;;;;2.72;0.90;;;;;;;;;;5020481;28;20120;-72
2023/02/03 03:37:17;;;;;;;5.93;1.10;;;;;;;;;;5020238;28;20030;-72
2023/02/03 03:39:54;;;;;;;2.70;0.93;;;;;;;;;;5017160;28;20042;-73
2023/02/03 03:42:27;;;;;;;6.38;0.80;;;;;;;;;;5028215;28;20026;-73
2023/02/03 03:45:18;;;;;;;4.32;0.85;;;;;;;;;;5025690;28;20029;-73
2023/02/03 03:47:56;;;;;;;4.60;0.80;;;;;;;;;;5020478;28;20073;-73
2023/02/03 03:50:26;;;;;;;0.98;0.55;;;;;;;;;;5016650;28;20040;-72
2023/02/03 03:52:53;;;;;;;1.90;0.60;;;;;;;;;;5045900;28;20486;-73
2023/02/03 03:55:19;;;;;;;6.32;0.73;;;;;;;;;;5017524;28;20119;-72
2023/02/03 03:57:53;;;;;;;4.30;0.90;;;;;;;;;;5024392;28;20073;-73
2023/02/03 04:00:19;;;;;;;5.80;0.77;;;;;;;;;;5024752;28;20484;-73
2023/02/03 04:02:50;;;;;;;1.95;0.60;;;;;;;;;;5027935;28;20038;-73
2023/02/03 04:05:15;;;;;;;4.30;0.60;;;;;;;;;;5004998;28;20029;-73
2023/02/03 04:07:43;;;;;;;3.40;0.88;;;;;;;;;;5030899;28;20049;-73
2023/02/03 04:10:27;;;;;;;3.85;0.80;;;;;;;;;;5023914;28;20045;-73
2023/02/03 04:12:52;;;;;;;3.00;0.63;;;;;;;;;;5028271;28;20425;-72
2023/02/03 04:15:18;;;;;;;2.33;0.70;;;;;;;;;;5028294;28;20033;-73
2023/02/03 04:17:43;;;;;;;1.65;0.50;;;;;;;;;;5023898;28;20087;-72
2023/02/03 04:20:09;;;;;;;4.80;1.02;;;;;;;;;;5018097;28;20080;-73
2023/02/03 04:22:35;;;;;;;3.55;0.88;;;;;;;;;;5020609;28;20046;-73
2023/02/03 04:25:00;;;;;;;5.20;0.60;;;;;;;;;;5025898;28;20057;-72
2023/02/03 04:27:26;;;;;;;2.58;0.65;;;;;;;;;;5032635;28;20385;-72
2023/02/03 04:29:51;;;;;;;0.90;0.50;;;;;;;;;;5021573;28;20045;-72
2023/02/03 04:32:17;;;;;;;2.70;0.60;;;;;;;;;;5029273;28;20493;-72
2023/02/03 04:34:42;;;;;;;4.30;0.85;;;;;;;;;;5022332;28;20056;-72
2023/02/03 04:37:08;;;;;;;5.47;1.20;;;;;;;;;;5022562;28;20489;-72
2023/02/03 04:39:33;;;;;;;2.63;0.63;;;;;;;;;;5017008;28;20125;-72
2023/02/03 04:41:58;;;;;;;3.00;0.95;;;;;;;;;;5031706;28;20466;-73
2023/02/03 04:44:24;;;;;;;3.28;0.60;;;;;;;;;;5027053;28;20083;-72
2023/02/03 04:46:49;;;;;;;3.53;0.68;;;;;;;;;;5021714;28;20108;-73
2023/02/03 04:49:16;;;;;;;2.70;1.00;;;;;;;;;;5026381;28;20038;-73
2023/02/03 04:51:43;;;;;;;3.22;0.90;;;;;;;;;;5029257;28;20069;-73
2023/02/03 04:54:08;;;;;;;6.68;1.00;;;;;;;;;;5026465;28;20030;-73
2023/02/03 04:56:34;;;;;;;4.43;1.15;;;;;;;;;;5022163;28;20036;-72
2023/02/03 04:58:59;;;;;;;2.42;0.68;;;;;;;;;;5034681;28;20116;-72
2023/02/03 05:01:25;;;;;;;7.05;0.70;;;;;;;;;;5020331;28;20030;-75
2023/02/03 05:03:50;;;;;;;4.45;0.80;;;;;;;;;;5025275;28;20462;-72
2023/02/03 05:06:16;;;;;;;2.78;0.70;;;;;;;;;;5020909;28;20048;-73
2023/02/03 05:08:41;;;;;;;2.40;0.70;;;;;;;;;;5023888;28;20079;-73
2023/02/03 05:11:06;;;;;;;4.78;0.77;;;;;;;;;;5020552;28;20037;-72
2023/02/03 05:13:32;;;;;;;2.15;0.50;;;;;;;;;;5029762;28;20034;-72
2023/02/03 05:15:57;;;;;;;1.80;0.63;;;;;;;;;;5033319;28;20044;-72
2023/02/03 05:18:22;;;;;;;3.03;0.75;;;;;;;;;;5023717;28;20124;-73
2023/02/03 05:20:48;;;;;;;4.30;0.80;;;;;;;;;;5023493;28;20060;-73
2023/02/03 05:23:13;;;;;;;2.35;0.88;;;;;;;;;;5022584;28;20034;-73
2023/02/03 05:25:39;;;;;;;2.92;0.60;;;;;;;;;;5022750;28;20370;-72
2023/02/03 05:28:04;;;;;;;3.22;0.70;;;;;;;;;;5019044;28;20042;-73
2023/02/03 05:30:30;;;;;;;3.15;0.52;;;;;;;;;;5020813;28;20112;-73
2023/02/03 05:32:55;;;;;;;2.78;0.70;;;;;;;;;;5024561;28;20468;-72
2023/02/03 05:35:20;;;;;;;2.03;0.50;;;;;;;;;;5023715;28;20091;-73
2023/02/03 05:37:47;;;;;;;4.25;0.88;;;;;;;;;;5021489;28;20386;-72
2023/02/03 05:42:57;;;;;;;1.50;0.50;;;;;;;;;;5017664;28;20465;-72
2023/02/03 05:45:22;;;;;;;5.63;0.60;;;;;;;;;;5014563;28;20061;-72
2023/02/03 05:47:48;;;;;;;1.88;0.50;;;;;;;;;;5016826;28;20037;-72
2023/02/03 05:50:13;;;;;;;6.18;0.57;;;;;;;;;;5024994;28;20041;-73
2023/02/03 05:52:39;;;;;;;6.80;0.95;;;;;;;;;;5026289;28;20540;-72
2023/02/03 05:55:04;;;;;;;4.78;0.85;;;;;;;;;;5019521;28;20029;-73
2023/02/03 05:57:29;;;;;;;3.47;1.30;;;;;;;;;;5023563;28;20442;-73
2023/02/03 05:59:55;;;;;;;5.45;1.17;;;;;;;;;;5025839;28;20045;-73
2023/02/03 06:02:20;;;;;;;7.93;1.20;;;;;;;;;;5020023;28;20397;-73
2023/02/03 06:04:46;;;;;;;2.13;0.70;;;;;;;;;;5021809;28;20072;-73
2023/02/03 06:07:11;;;;;;;2.78;0.70;;;;;;;;;;5024702;28;20054;-73
2023/02/03 06:09:36;;;;;;;2.03;0.55;;;;;;;;;;5023385;28;20042;-73
2023/02/03 06:12:02;;;;;;;2.05;0.95;;;;;;;;;;5020822;28;20478;-73
2023/02/03 06:14:27;;;;;;;1.65;0.50;;;;;;;;;;5015457;28;20052;-73
2023/02/03 06:16:53;;;;;;;1.10;0.50;;;;;;;;;;5029174;28;20499;-72
2023/02/03 06:19:18;;;;;;;1.88;0.55;;;;;;;;;;5024055;28;20038;-73
2023/02/03 06:21:44;;;;;;;5.47;0.63;;;;;;;;;;5017624;28;20064;-72
2023/02/03 06:24:09;;;;;;;4.00;0.70;;;;;;;;;;5018698;28;20042;-73
2023/02/03 06:26:35;;;;;;;2.35;0.98;;;;;;;;;;5017484;28;20037;-73
2023/02/03 06:29:00;;;;;;;3.42;0.93;;;;;;;;;;5019069;28;20401;-73
2023/02/03 06:31:26;;;;;;;1.95;0.60;;;;;;;;;;5018274;28;20042;-72
2023/02/03 06:33:51;;;;;;;5.10;1.30;;;;;;;;;;5018922;28;20080;-73
2023/02/03 06:36:16;;;;;;;4.50;1.00;;;;;;;;;;5021433;28;20044;-73
2023/02/03 06:38:42;;;;;;;1.88;0.80;;;;;;;;;;5022166;28;20033;-73
2023/02/03 06:41:07;;;;;;;2.00;0.63;;;;;;;;;;5020421;28;20107;-74
2023/02/03 06:43:34;;;;;;;1.23;0.60;;;;;;;;;;5020323;28;20033;-73
2023/02/03 06:45:59;;;;;;;1.90;0.85;;;;;;;;;;5019854;28;20044;-73
2023/02/03 06:48:25;;;;;;;2.22;0.73;;;;;;;;;;5029113;28;20029;-73
2023/02/03 06:50:50;;;;;;;4.20;0.90;;;;;;;;;;5023168;28;20037;-73
2023/02/03 06:53:16;;;;;;;1.73;0.50;;;;;;;;;;5018443;28;20412;-73
2023/02/03 06:55:41;;;;;;;2.20;0.68;;;;;;;;;;5014476;28;20386;-73
2023/02/03 06:58:07;;;;;;;1.80;0.77;;;;;;;;;;5019539;28;20038;-72
2023/02/03 07:00:32;;;;;;;4.05;2.30;;;;;;;;;;5019922;28;20073;-73
2023/02/03 07:02:58;;;;;;;2.17;0.90;;;;;;;;;;5030073;28;20060;-73
2023/02/03 07:05:26;;;;;;;3.72;0.88;;;;;;;;;;5026995;28;20033;-74
2023/02/03 07:07:52;;;;;;;2.92;0.70;;;;;;;;;;5028736;28;20091;-73
2023/02/03 07:10:17;;;;;;;1.77;0.88;;;;;;;;;;5028499;28;20037;-73
2023/02/03 07:12:43;;;;;;;9.60;0.80;;;;;;;;;;5015045;28;20026;-73
2023/02/03 07:15:09;;;;;;;4.07;0.90;;;;;;;;;;5023399;28;20065;-73
2023/02/03 07:17:35;;;;;;;6.97;0.85;;;;;;;;;;5026816;28;20500;-72
2023/02/03 07:20:00;;;;;;;6.20;0.75;;;;;;;;;;5020904;28;20037;-73
2023/02/03 07:22:26;;;;;;;4.13;0.70;;;;;;;;;;5036917;28;20048;-73
2023/02/03 07:24:51;;;;;;;5.25;1.17;;;;;;;;;;5036734;28;20037;-72
2023/02/03 07:27:18;;;;;;;4.05;0.85;;;;;;;;;;5022213;28;20037;-73
2023/02/03 07:29:43;;;;;;;3.25;0.73;;;;;;;;;;5021295;28;20486;-72
2023/02/03 07:32:08;;;;;;;4.90;0.90;;;;;;;;;;5028195;28;20044;-73
2023/02/03 07:34:34;;;;;;;5.35;0.70;;;;;;;;;;5022103;28;20045;-72
2023/02/03 07:36:59;;;;;;;2.38;0.77;;;;;;;;;;5025250;28;20037;-73
2023/02/03 07:39:25;;;;;;;4.15;0.80;;;;;;;;;;5021268;28;20037;-72
2023/02/03 07:41:50;;;;;;;4.13;1.00;;;;;;;;;;5020749;28;20040;-73
2023/02/03 07:44:15;;;;;;;1.85;0.70;;;;;;;;;;5019202;28;20041;-73
2023/02/03 07:46:43;;;;;;;5.28;0.82;;;;;;;;;;5019310;28;20041;-72
2023/02/03 07:49:11;;;;;;;4.75;0.75;;;;;;;;;;5024244;28;20038;-73
2023/02/03 07:51:37;;;;;;;3.63;0.60;;;;;;;;;;5020325;28;20052;-73
2023/02/03 07:54:03;;;;;;;3.65;0.65;;;;;;;;;;5021281;28;20029;-73
2023/02/03 07:56:29;;;;;;;8.00;1.10;;;;;;;;;;5020830;28;20030;-72
2023/02/03 07:58:55;;;;;;;3.35;0.70;;;;;;;;;;5018882;28;20066;-72
2023/02/03 08:01:21;;;;;;;3.42;0.80;;;;;;;;;;5010115;28;20500;-73
2023/02/03 08:03:48;;;;;;;3.25;1.42;;;;;;;;;;5022558;28;20064;-73
2023/02/03 08:06:13;;;;;;;4.35;0.98;;;;;;;;;;5024972;28;20398;-73
2023/02/03 08:08:40;;;;;;;6.13;0.93;;;;;;;;;;5025440;28;20068;-73
2023/02/03 08:11:05;;;;;;;12.13;4.30;;;;;;;;;;5031046;28;20128;-72
2023/02/03 08:13:31;;;;;;;14.90;4.55;;;;;;;;;;5027593;28;20517;-72
2023/02/03 08:15:56;;;;;;;26.30;6.43;;;;;;;;;;5022540;28;20486;-74
2023/02/03 08:18:22;;;;;;;17.55;4.00;;;;;;;;;;5031554;28;20469;-73
2023/02/03 08:20:48;;;;;;;21.05;5.47;;;;;;;;;;5023078;28;20041;-72
2023/02/03 08:23:13;;;;;;;25.48;6.43;;;;;;;;;;5027356;28;20033;-73
2023/02/03 08:25:39;;;;;;;15.90;3.05;;;;;;;;;;5025601;28;20046;-72
2023/02/03 08:28:04;;;;;;;13.50;3.40;;;;;;;;;;5027869;28;20045;-75
2023/02/03 08:30:29;;;;;;;15.25;4.85;;;;;;;;;;5019856;28;20681;-73
2023/02/03 08:32:55;;;;;;;11.48;4.53;;;;;;;;;;5023497;28;20033;-72
2023/02/03 08:35:20;;;;;;;16.80;3.65;;;;;;;;;;5021046;28;20390;-73
2023/02/03 08:37:45;;;;;;;12.40;4.05;;;;;;;;;;5027397;28;20493;-73
2023/02/03 08:40:12;;;;;;;14.25;3.78;;;;;;;;;;5033572;28;20033;-73
2023/02/03 08:42:37;;;;;;;13.32;4.40;;;;;;;;;;5029386;28;20041;-72
2023/02/03 08:45:03;;;;;;;13.07;3.78;;;;;;;;;;5022288;28;20037;-73
2023/02/03 08:47:29;;;;;;;11.70;4.00;;;;;;;;;;5040892;28;20041;-73
2023/02/03 08:49:54;;;;;;;14.15;4.32;;;;;;;;;;5022902;28;20362;-73
2023/02/03 08:52:20;;;;;;;8.85;4.18;;;;;;;;;;5032049;28;20088;-74
2023/02/03 08:54:46;;;;;;;14.00;4.60;;;;;;;;;;5021339;28;20469;-74
2023/02/03 08:57:11;;;;;;;15.73;4.10;;;;;;;;;;4999857;28;20038;-73
2023/02/03 08:59:39;;;;;;;15.90;4.43;;;;;;;;;;5018558;28;20029;-73
2023/02/03 09:02:06;;;;;;;17.40;4.80;;;;;;;;;;5042793;28;20044;-73
2023/02/03 09:04:32;;;;;;;13.40;4.38;;;;;;;;;;5031093;28;20046;-74
2023/02/03 09:06:58;;;;;;;14.93;5.07;;;;;;;;;;5014777;28;20030;-75
2023/02/03 09:09:25;;;;;;;15.32;4.93;;;;;;;;;;5012504;28;20544;-72
2023/02/03 09:11:54;;;;;;;18.10;3.88;;;;;;;;;;5013587;28;20063;-73
2023/02/03 09:14:19;;;;;;;13.75;4.55;;;;;;;;;;5014156;28;20029;-76
2023/02/03 09:16:45;;;;;;;14.60;4.40;;;;;;;;;;5017261;28;20500;-72
2023/02/03 09:19:12;;;;;;;9.35;3.95;;;;;;;;;;5012089;28;20367;-72
2023/02/03 09:21:37;;;;;;;8.48;3.38;;;;;;;;;;5012149;28;20061;-73
2023/02/03 09:24:03;;;;;;;12.60;2.78;;;;;;;;;;5019120;28;20548;-73
2023/02/03 09:26:28;;;;;;;13.93;3.92;;;;;;;;;;5021161;28;20092;-72
2023/02/03 09:28:54;;;;;;;7.43;3.30;;;;;;;;;;5021310;28;20037;-73
2023/02/03 09:31:19;;;;;;;11.57;2.95;;;;;;;;;;5015394;28;20026;-75
2023/02/03 09:33:45;;;;;;;8.38;3.08;;;;;;;;;;5019206;28;20067;-73
2023/02/03 09:36:11;;;;;;;8.57;2.47;;;;;;;;;;5011722;28;20038;-73
2023/02/03 09:38:37;;;;;;;9.43;2.88;;;;;;;;;;5012578;28;20812;-72
2023/02/03 09:41:16;;;;;;;8.73;2.78;;;;;;;;;;5023380;28;20041;-73
2023/02/03 09:43:48;;;;;;;8.00;3.72;;;;;;;;;;5008228;28;20125;-74
2023/02/03 09:46:20;;;;;;;11.57;3.30;;;;;;;;;;5012443;28;20575;-75
2023/02/03 09:48:52;;;;;;;12.60;3.90;;;;;;;;;;5026900;28;20500;-73
2023/02/03 09:51:50;;;;;;;13.85;4.18;;;;;;;;;;5019293;28;20041;-73
2023/02/03 09:54:19;;;;;;;11.45;3.70;;;;;;;;;;5012277;28;20053;-73
2023/02/03 09:56:51;;;;;;;9.40;4.07;;;;;;;;;;5019416;28;20473;-72
2023/02/03 09:59:17;;;;;;;10.27;3.42;;;;;;;;;;5007411;28;20041;-73
2023/02/03 10:01:48;;;;;;;9.35;3.75;;;;;;;;;;5019264;28;20033;-73
2023/02/03 10:04:26;;;;;;;12.70;3.47;;;;;;;;;;5025140;28;20541;-73
2023/02/03 10:06:55;;;;;;;12.60;3.40;;;;;;;;;;5013796;28;20030;-73
2023/02/03 10:09:43;;;;;;;12.93;4.22;;;;;;;;;;5007694;28;20132;-77
2023/02/03 10:12:30;;;;;;;12.00;3.45;;;;;;;;;;5010286;28;20092;-73
2023/02/03 10:15:06;;;;;;;11.13;2.80;;;;;;;;;;4998118;28;20459;-73
2023/02/03 10:17:37;;;;;;;7.43;2.40;;;;;;;;;;5010917;28;20032;-73
2023/02/03 10:20:09;;;;;;;8.50;2.13;;;;;;;;;;5011991;28;20031;-73
2023/02/03 10:22:50;;;;;;;6.22;1.63;;;;;;;;;;5009305;28;20038;-73
2023/02/03 10:25:35;;;;;;;9.18;2.47;;;;;;;;;;5011189;28;20038;-73
2023/02/03 10:28:03;;;;;;;7.05;2.20;;;;;;;;;;5008008;28;20467;-78
2023/02/03 10:30:33;;;;;;;7.60;2.90;;;;;;;;;;5011431;28;20042;-73
2023/02/03 10:33:16;;;;;;;7.00;2.45;;;;;;;;;;5025435;28;20029;-73
2023/02/03 10:35:52;;;;;;;8.65;3.08;;;;;;;;;;5019099;28;20048;-72
2023/02/03 10:38:43;;;;;;;15.90;4.57;;;;;;;;;;5016161;28;20116;-73
2023/02/03 10:41:09;;;;;;;23.08;5.03;;;;;;;;;;5017490;28;20030;-73
2023/02/03 10:43:46;;;;;;;9.00;3.15;;;;;;;;;;5012962;28;20103;-72
2023/02/03 10:46:15;;;;;;;10.38;4.05;;;;;;;;;;5007196;28;20493;-77
2023/02/03 10:48:41;;;;;;;13.35;4.22;;;;;;;;;;5023282;28;20124;-72
2023/02/03 10:51:21;;;;;;;12.73;3.03;;;;;;;;;;5021676;28;20172;-76
2023/02/03 10:53:47;;;;;;;8.95;2.78;;;;;;;;;;5018936;28;20059;-77
2023/02/03 10:56:16;;;;;;;10.48;3.10;;;;;;;;;;5035359;28;20486;-72
2023/02/03 10:58:48;;;;;;;11.50;2.85;;;;;;;;;;5024775;28;20041;-72
2023/02/03 11:01:16;;;;;;;14.13;2.85;;;;;;;;;;5014835;28;20073;-73
2023/02/03 11:03:44;;;;;;;9.95;2.80;;;;;;;;;;5034890;28;20037;-72
2023/02/03 11:06:13;;;;;;;15.38;3.42;;;;;;;;;;5013297;28;20063;-73
2023/02/03 11:08:43;;;;;;;10.98;2.92;;;;;;;;;;5027262;28;20121;-73
2023/02/03 11:11:14;;;;;;;8.65;1.90;;;;;;;;;;4993997;28;20070;-73
2023/02/03 11:13:39;;;;;;;9.38;2.00;;;;;;;;;;5012912;28;20077;-73
2023/02/03 11:16:25;;;;;;;6.18;1.58;;;;;;;;;;5010333;28;20057;-72
2023/02/03 11:18:57;;;;;;;7.95;1.77;;;;;;;;;;5023326;28;20049;-73
2023/02/03 11:21:29;;;;;;;4.47;1.73;;;;;;;;;;5021240;28;20038;-73
2023/02/03 11:24:06;;;;;;;6.22;1.85;;;;;;;;;;5009670;28;20130;-73
2023/02/03 11:26:35;;;;;;;6.22;1.40;;;;;;;;;;5042313;28;20466;-73
2023/02/03 11:29:01;;;;;;;4.63;1.38;;;;;;;;;;5013647;28;20040;-73
2023/02/03 11:31:29;;;;;;;6.43;1.70;;;;;;;;;;5003540;28;20041;-73
2023/02/03 11:34:01;;;;;;;6.53;1.30;;;;;;;;;;5011613;28;20478;-73
2023/02/03 11:36:29;;;;;;;2.60;0.80;;;;;;;;;;5014553;28;20030;-74
2023/02/03 11:39:11;;;;;;;3.67;0.98;;;;;;;;;;5015300;28;20037;-73
2023/02/03 11:41:38;;;;;;;2.47;0.57;;;;;;;;;;5018408;28;20206;-72
2023/02/03 11:44:25;;;;;;;4.00;0.80;;;;;;;;;;5021480;28;20060;-78
2023/02/03 11:46:55;;;;;;;2.03;0.85;;;;;;;;;;5000764;28;20044;-76
2023/02/03 11:49:35;;;;;;;2.55;0.70;;;;;;;;;;5014816;28;20473;-77
2023/02/03 11:52:27;;;;;;;1.63;0.60;;;;;;;;;;5011292;28;20129;-73
2023/02/03 11:55:07;;;;;;;4.97;0.88;;;;;;;;;;5010086;28;20040;-74
2023/02/03 11:57:42;;;;;;;1.85;0.65;;;;;;;;;;5015277;28;20132;-73
2023/02/03 12:00:13;;;;;;;4.30;0.73;;;;;;;;;;5007669;28;20045;-73
2023/02/03 12:02:59;;;;;;;1.90;0.75;;;;;;;;;;5028167;28;20115;-73
2023/02/03 12:05:54;;;;;;;2.20;0.68;;;;;;;;;;5028240;28;20034;-73
2023/02/03 12:08:28;;;;;;;;;;;;;;;;;;4997142;28;20763;-76
2023/02/03 12:11:13;;;;;;;4.68;0.90;;;;;;;;;;5024269;28;19955;-72
2023/02/03 12:13:47;;;;;;;5.32;0.75;;;;;;;;;;5020652;28;20061;-73
2023/02/03 12:16:18;;;;;;;1.85;0.70;;;;;;;;;;5024542;28;20040;-73
2023/02/03 12:18:54;;;;;;;4.47;0.80;;;;;;;;;;5029015;28;20409;-73
2023/02/03 12:21:41;;;;;;;4.75;0.70;;;;;;;;;;5016615;28;20477;-74
2023/02/03 12:24:12;;;;;;;2.58;0.57;;;;;;;;;;5018463;28;20034;-74
2023/02/03 12:26:49;;;;;;;1.60;0.50;;;;;;;;;;5018915;28;20033;-73
2023/02/03 12:29:19;;;;;;;1.40;0.60;;;;;;;;;;5019741;28;20045;-74
2023/02/03 12:32:06;;;;;;;4.43;0.77;;;;;;;;;;5007259;28;20481;-74
2023/02/03 12:34:49;;;;;;;3.38;0.70;;;;;;;;;;5021478;28;20050;-73
2023/02/03 12:37:28;;;;;;;1.50;0.68;;;;;;;;;;5027317;28;20030;-73
2023/02/03 12:39:58;;;;;;;0.88;0.55;;;;;;;;;;5023051;28;20037;-74
2023/02/03 12:42:29;;;;;;;2.13;0.52;;;;;;;;;;5024745;28;20046;-74
2023/02/03 12:45:17;;;;;;;0.73;0.35;;;;;;;;;;5025139;28;20518;-76
2023/02/03 12:47:45;;;;;;;2.65;0.77;;;;;;;;;;4996720;28;20038;-77
2023/02/03 12:50:18;;;;;;;2.80;0.70;;;;;;;;;;5022981;28;20041;-74
2023/02/03 12:52:49;;;;;;;1.23;0.45;;;;;;;;;;5012191;28;20050;-76
2023/02/03 12:55:19;;;;;;;0.57;0.30;;;;;;;;;;5015800;28;20046;-74
2023/02/03 12:57:59;;;;;;;2.00;0.47;;;;;;;;;;5022634;28;20045;-73
2023/02/03 13:00:40;;;;;;;3.47;0.80;;;;;;;;;;5011635;28;20052;-73
2023/02/03 13:03:29;;;;;;;1.55;0.52;;;;;;;;;;5029273;28;20165;-74
2023/02/03 13:06:14;;;;;;;1.77;0.45;;;;;;;;;;5016061;28;20038;-74
2023/02/03 13:08:45;;;;;;;5.45;1.25;;;;;;;;;;5015924;28;20033;-73
2023/02/03 13:11:25;;;;;;;6.05;0.90;;;;;;;;;;5023089;28;20041;-73
2023/02/03 13:13:56;;;;;;;2.60;0.77;;;;;;;;;;5043207;28;20087;-73
2023/02/03 13:16:30;;;;;;;2.92;0.75;;;;;;;;;;5027550;28;20092;-73
2023/02/03 13:19:01;;;;;;;3.53;0.80;;;;;;;;;;5021810;28;20051;-73
2023/02/03 13:21:27;;;;;;;1.83;0.80;;;;;;;;;;5015248;28;20473;-75
2023/02/03 13:23:53;;;;;;;2.00;0.70;;;;;;;;;;5015850;28;20099;-73
2023/02/03 13:26:30;;;;;;;2.78;0.70;;;;;;;;;;5030106;28;20033;-74
2023/02/03 13:29:12;;;;;;;2.33;0.90;;;;;;;;;;5026429;28;20041;-74
2023/02/03 13:32:06;;;;;;;5.45;0.60;;;;;;;;;;4996154;28;20100;-74
2023/02/03 13:34:43;;;;;;;1.30;0.60;;;;;;;;;;5021515;28;20041;-73
2023/02/03 13:37:33;;;;;;;1.50;0.60;;;;;;;;;;5018993;28;20039;-74
2023/02/03 13:40:08;;;;;;;0.82;0.60;;;;;;;;;;5027132;28;20137;-73
2023/02/03 13:42:38;;;;;;;2.75;1.13;;;;;;;;;;5023139;28;20038;-73
2023/02/03 13:45:31;;;;;;;4.18;1.20;;;;;;;;;;5011693;28;20046;-74
2023/02/03 13:48:16;;;;;;;2.67;1.00;;;;;;;;;;5019209;28;20686;-73
2023/02/03 13:50:42;;;;;;;7.53;3.25;;;;;;;;;;5021874;28;20056;-73
2023/02/03 13:53:15;;;;;;;10.98;3.80;;;;;;;;;;5008964;28;20139;-73
2023/02/03 13:56:04;;;;;;;9.07;2.55;;;;;;;;;;5013400;28;20180;-73
2023/02/03 13:58:32;;;;;;;3.33;1.38;;;;;;;;;;5015574;28;20140;-73
2023/02/03 14:01:19;;;;;;;2.35;1.13;;;;;;;;;;5013636;28;20034;-74
2023/02/03 14:03:45;;;;;;;2.85;1.30;;;;;;;;;;5023638;28;20037;-73
2023/02/03 14:06:41;;;;;;;1.88;1.08;;;;;;;;;;5025607;28;20163;-73
2023/02/03 14:09:23;;;;;;;3.08;1.38;;;;;;;;;;4992637;28;20054;-73
2023/02/03 14:12:14;;;;;;;3.30;1.08;;;;;;;;;;5009182;28;20861;-73
2023/02/03 14:14:42;;;;;;;7.38;1.85;;;;;;;;;;5021582;28;20095;-74
2023/02/03 14:17:50;;;;;;;8.25;2.85;;;;;;;;;;5019686;28;20132;-74
2023/02/03 14:20:27;;;;;;;5.78;1.60;;;;;;;;;;5019332;28;20409;-74
2023/02/03 14:22:57;;;;;;;5.45;1.50;;;;;;;;;;5017057;28;20038;-73
2023/02/03 14:25:23;;;;;;;4.38;1.90;;;;;;;;;;5042469;28;20508;-73
2023/02/03 14:28:01;;;;;;;7.45;2.50;;;;;;;;;;5019656;28;20041;-73
2023/02/03 14:30:27;;;;;;;4.30;1.40;;;;;;;;;;5025341;28;20033;-73
2023/02/03 14:32:57;;;;;;;2.40;0.90;;;;;;;;;;5015441;28;20080;-75
2023/02/03 14:35:29;;;;;;;3.72;0.98;;;;;;;;;;5021402;28;20477;-73
2023/02/03 14:37:56;;;;;;;2.25;0.80;;;;;;;;;;5007792;28;20400;-73
2023/02/03 14:40:24;;;;;;;1.55;0.60;;;;;;;;;;5018094;28;20041;-73
2023/02/03 14:43:09;;;;;;;2.55;0.88;;;;;;;;;;5023461;28;20047;-73
2023/02/03 14:45:55;;;;;;;3.03;0.98;;;;;;;;;;5006777;28;20046;-73
2023/02/03 14:48:41;;;;;;;0.80;0.50;;;;;;;;;;5024082;28;20037;-73
2023/02/03 14:51:18;;;;;;;2.33;0.70;;;;;;;;;;5017270;28;20056;-73
2023/02/03 14:53:49;;;;;;;2.40;0.70;;;;;;;;;;5026783;28;20049;-74
2023/02/03 14:56:24;;;;;;;3.15;0.70;;;;;;;;;;5022441;28;20124;-73
2023/02/03 14:58:53;;;;;;;1.48;0.80;;;;;;;;;;5019481;28;20063;-73
2023/02/03 15:01:34;;;;;;;2.88;1.08;;;;;;;;;;5026541;28;20120;-73